createdAt,value
2019-02-25T00:00:09.832Z,22.05
2019-02-25T00:02:37.166Z,23.90
2019-02-25T00:05:04.633Z,23.42
2019-02-25T00:07:31.958Z,25.27
2019-02-25T00:09:59.279Z,24.23
2019-02-25T00:12:26.599Z,24.30
2019-02-25T00:14:53.893Z,24.67
2019-02-25T00:17:21.235Z,25.70
2019-02-25T00:19:48.538Z,28.77
2019-02-25T00:22:15.859Z,26.70
2019-02-25T00:24:43.215Z,25.70
2019-02-25T00:27:10.513Z,27.70
2019-02-25T00:29:37.839Z,26.35
2019-02-25T00:32:05.134Z,23.67
2019-02-25T00:34:32.457Z,24.18
2019-02-25T00:36:59.754Z,24.90
2019-02-25T00:39:27.077Z,24.63
2019-02-25T00:41:54.383Z,25.23
2019-02-25T00:44:21.666Z,24.10
2019-02-25T00:46:48.980Z,23.40
2019-02-25T00:49:16.277Z,25.85
2019-02-25T00:51:43.602Z,24.60
2019-02-25T00:54:10.894Z,23.77
2019-02-25T00:56:38.210Z,25.50
2019-02-25T00:59:05.525Z,27.62
2019-02-25T01:01:32.881Z,26.20
2019-02-25T01:04:00.177Z,26.02
2019-02-25T01:06:27.489Z,25.70
2019-02-25T01:08:54.822Z,24.45
2019-02-25T01:11:22.123Z,24.92
2019-02-25T01:13:49.427Z,25.60
2019-02-25T01:16:16.753Z,24.43
2019-02-25T01:18:44.050Z,26.23
2019-02-25T01:21:11.361Z,24.43
2019-02-25T01:23:38.667Z,27.22
2019-02-25T01:26:05.997Z,26.37
2019-02-25T01:28:33.284Z,26.07
2019-02-25T01:31:00.595Z,25.37
2019-02-25T01:33:27.922Z,24.98
2019-02-25T01:35:55.229Z,26.12
2019-02-25T01:38:22.527Z,26.55
2019-02-25T01:40:49.851Z,25.80
2019-02-25T01:43:17.192Z,26.37
2019-02-25T01:45:44.507Z,28.15
2019-02-25T01:48:11.799Z,29.65
2019-02-25T01:50:39.143Z,27.87
2019-02-25T01:53:06.443Z,25.90
2019-02-25T01:55:33.734Z,25.50
2019-02-25T01:58:01.055Z,26.48
2019-02-25T02:00:28.349Z,23.73
2019-02-25T02:02:55.688Z,25.08
2019-02-25T02:05:24.565Z,25.57
2019-02-25T02:07:52.012Z,24.27
2019-02-25T02:10:19.312Z,26.02
2019-02-25T02:12:46.625Z,26.05
2019-02-25T02:15:14.782Z,24.75
2019-02-25T02:17:42.176Z,25.72
2019-02-25T02:20:11.123Z,25.68
2019-02-25T02:22:38.418Z,25.02
2019-02-25T02:25:06.716Z,26.42
2019-02-25T02:27:34.015Z,26.15
2019-02-25T02:30:01.315Z,25.32
2019-02-25T02:32:28.637Z,26.27
2019-02-25T02:34:55.929Z,26.42
2019-02-25T02:37:23.226Z,26.27
2019-02-25T02:39:50.547Z,24.80
2019-02-25T02:42:18.630Z,25.32
2019-02-25T02:44:46.989Z,24.77
2019-02-25T02:47:30.711Z,25.92
2019-02-25T02:49:59.566Z,26.68
2019-02-25T02:52:26.852Z,27.50
2019-02-25T02:54:54.181Z,26.17
2019-02-25T02:57:21.460Z,26.15
2019-02-25T02:59:48.760Z,25.62
2019-02-25T03:02:16.068Z,26.27
2019-02-25T03:04:43.382Z,26.10
2019-02-25T03:07:10.694Z,27.07
2019-02-25T03:09:37.995Z,27.00
2019-02-25T03:12:05.381Z,25.72
2019-02-25T03:14:32.683Z,24.72
2019-02-25T03:17:00.017Z,25.15
2019-02-25T03:19:27.315Z,25.12
2019-02-25T03:21:54.629Z,26.00
2019-02-25T03:24:21.938Z,25.35
2019-02-25T03:26:49.254Z,25.57
2019-02-25T03:29:16.549Z,26.48
2019-02-25T03:31:43.952Z,25.85
2019-02-25T03:34:11.276Z,31.30
2019-02-25T03:36:38.579Z,24.57
2019-02-25T03:39:06.566Z,28.32
2019-02-25T03:41:33.865Z,27.45
2019-02-25T03:44:01.268Z,26.65
2019-02-25T03:46:28.558Z,26.65
2019-02-25T03:48:55.882Z,24.45
2019-02-25T03:51:23.259Z,27.32
2019-02-25T03:53:50.544Z,28.60
2019-02-25T03:56:17.850Z,27.65
2019-02-25T03:58:45.170Z,27.48
2019-02-25T04:01:12.458Z,26.05
2019-02-25T04:03:40.152Z,32.58
2019-02-25T04:06:07.470Z,36.88
2019-02-25T04:08:34.762Z,28.85
2019-02-25T04:11:02.100Z,27.90
2019-02-25T04:13:29.402Z,29.32
2019-02-25T04:15:56.694Z,32.40
2019-02-25T04:18:24.094Z,28.60
2019-02-25T04:20:51.393Z,27.10
2019-02-25T04:23:18.710Z,29.07
2019-02-25T04:25:46.046Z,32.85
2019-02-25T04:28:13.339Z,28.42
2019-02-25T04:30:40.631Z,30.60
2019-02-25T04:33:07.940Z,43.85
2019-02-25T04:35:35.250Z,52.55
2019-02-25T04:38:03.121Z,44.75
2019-02-25T04:40:30.463Z,30.00
2019-02-25T04:42:57.765Z,27.90
2019-02-25T04:45:25.086Z,34.30
2019-02-25T04:47:52.388Z,35.55
2019-02-25T04:50:19.710Z,35.15
2019-02-25T04:52:47.002Z,33.00
2019-02-25T04:55:14.815Z,30.95
2019-02-25T04:57:42.094Z,30.05
2019-02-25T05:00:16.376Z,27.05
2019-02-25T05:02:43.780Z,29.67
2019-02-25T05:05:11.073Z,36.35
2019-02-25T05:07:38.371Z,35.28
2019-02-25T05:10:07.129Z,32.67
2019-02-25T05:12:34.447Z,39.73
2019-02-25T05:15:01.751Z,40.08
2019-02-25T05:17:29.067Z,32.73
2019-02-25T05:19:56.365Z,29.98
2019-02-25T05:22:23.681Z,28.92
2019-02-25T05:24:50.980Z,27.60
2019-02-25T05:27:18.302Z,27.37
2019-02-25T05:29:45.681Z,28.35
2019-02-25T05:32:12.901Z,33.45
2019-02-25T05:34:40.267Z,36.00
2019-02-25T05:37:07.601Z,39.27
2019-02-25T05:39:34.918Z,39.33
2019-02-25T05:42:02.206Z,42.33
2019-02-25T05:44:29.512Z,35.70
2019-02-25T05:46:56.891Z,29.95
2019-02-25T05:49:24.177Z,30.55
2019-02-25T05:51:51.473Z,28.83
2019-02-25T05:54:18.799Z,25.68
2019-02-25T05:56:46.170Z,27.15
2019-02-25T05:59:13.489Z,28.00
2019-02-25T06:01:40.815Z,29.15
2019-02-25T06:04:08.106Z,28.00
2019-02-25T06:06:35.394Z,27.32
2019-02-25T06:09:02.781Z,27.95
2019-02-25T06:11:30.089Z,27.58
2019-02-25T06:13:57.422Z,27.35
2019-02-25T06:16:24.715Z,26.68
2019-02-25T06:18:52.051Z,26.45
2019-02-25T06:21:19.365Z,27.55
2019-02-25T06:23:46.653Z,25.30
2019-02-25T06:26:13.952Z,25.92
2019-02-25T06:28:41.245Z,26.55
2019-02-25T06:31:08.546Z,25.68
2019-02-25T06:33:35.858Z,27.77
2019-02-25T06:36:03.177Z,27.45
2019-02-25T06:38:30.485Z,27.25
2019-02-25T06:40:57.803Z,28.52
2019-02-25T06:43:25.193Z,27.85
2019-02-25T06:45:52.562Z,32.10
2019-02-25T06:48:19.858Z,31.05
2019-02-25T06:50:47.166Z,31.57
2019-02-25T06:53:14.502Z,33.35
2019-02-25T06:55:41.829Z,29.82
2019-02-25T06:58:09.122Z,29.45
2019-02-25T07:00:36.410Z,29.72
2019-02-25T07:03:03.738Z,29.45
2019-02-25T07:05:32.709Z,29.10
2019-02-25T07:08:10.386Z,29.18
2019-02-25T07:10:42.061Z,31.17
2019-02-25T07:13:27.117Z,30.40
2019-02-25T07:15:56.060Z,33.92
2019-02-25T07:18:36.831Z,33.80
2019-02-25T07:21:08.786Z,35.45
2019-02-25T07:23:55.899Z,32.63
2019-02-25T07:26:30.523Z,29.63
2019-02-25T07:29:11.365Z,33.25
2019-02-25T07:31:55.102Z,42.50
2019-02-25T07:34:40.326Z,27.00
2019-02-25T07:37:12.347Z,28.55
2019-02-25T07:39:41.292Z,33.85
2019-02-25T07:42:19.242Z,27.35
2019-02-25T07:44:48.174Z,36.58
2019-02-25T07:47:20.059Z,29.75
2019-02-25T07:49:51.963Z,34.80
2019-02-25T07:52:29.848Z,31.65
2019-02-25T07:55:04.436Z,28.45
2019-02-25T07:57:33.389Z,30.70
2019-02-25T08:00:02.334Z,28.42
2019-02-25T08:02:31.273Z,27.32
2019-02-25T08:05:03.280Z,26.65
2019-02-25T08:07:37.892Z,32.38
2019-02-25T08:10:08.746Z,28.40
2019-02-25T08:12:40.444Z,29.02
2019-02-25T08:15:09.837Z,32.48
2019-02-25T08:17:54.970Z,36.80
2019-02-25T08:20:23.949Z,37.48
2019-02-25T08:22:59.046Z,33.10
2019-02-25T08:25:33.754Z,37.60
2019-02-25T08:28:20.848Z,25.32
2019-02-25T08:31:01.832Z,33.30
2019-02-25T08:33:46.741Z,24.70
2019-02-25T08:36:37.423Z,25.62
2019-02-25T08:39:19.895Z,21.75
2019-02-25T08:41:48.880Z,23.40
2019-02-25T08:44:26.614Z,32.05
2019-02-25T08:46:55.546Z,24.52
2019-02-25T08:49:24.474Z,27.17
2019-02-25T08:51:51.846Z,24.95
2019-02-25T08:54:19.129Z,23.32
2019-02-25T08:56:46.438Z,30.10
2019-02-25T08:59:13.729Z,27.50
2019-02-25T09:01:41.053Z,28.98
2019-02-25T09:04:08.354Z,31.42
2019-02-25T09:06:35.646Z,23.67
2019-02-25T09:09:03.901Z,25.75
2019-02-25T09:11:31.206Z,28.87
2019-02-25T09:13:58.514Z,25.72
2019-02-25T09:16:25.839Z,31.23
2019-02-25T09:18:53.262Z,24.80
2019-02-25T09:21:20.587Z,23.00
2019-02-25T09:23:47.905Z,32.42
2019-02-25T09:26:15.205Z,19.52
2019-02-25T09:28:42.534Z,25.50
2019-02-25T09:31:09.822Z,24.05
2019-02-25T09:33:37.126Z,24.20
2019-02-25T09:36:04.432Z,23.55
2019-02-25T09:38:31.754Z,26.87
2019-02-25T09:40:59.076Z,30.12
2019-02-25T09:43:26.357Z,21.50
2019-02-25T09:45:53.686Z,20.80
2019-02-25T09:48:20.974Z,26.62
2019-02-25T09:50:48.280Z,24.10
2019-02-25T09:53:15.680Z,24.65
2019-02-25T09:55:42.988Z,24.07
2019-02-25T09:58:10.298Z,22.13
2019-02-25T10:00:37.624Z,24.77
2019-02-25T10:03:04.926Z,21.37
2019-02-25T10:05:32.291Z,20.72
2019-02-25T10:07:59.589Z,28.17
2019-02-25T10:10:26.923Z,24.43
2019-02-25T10:12:54.319Z,27.07
2019-02-25T10:15:22.381Z,23.32
2019-02-25T10:17:49.707Z,21.45
2019-02-25T10:20:17.005Z,17.05
2019-02-25T10:22:44.322Z,24.70
2019-02-25T10:25:11.708Z,18.45
2019-02-25T10:27:39.002Z,22.15
2019-02-25T10:30:07.994Z,26.02
2019-02-25T10:32:35.294Z,21.40
2019-02-25T10:35:02.596Z,26.97
2019-02-25T10:37:29.922Z,24.50
2019-02-25T10:39:57.218Z,19.77
2019-02-25T10:42:24.536Z,20.50
2019-02-25T10:44:51.834Z,23.07
2019-02-25T10:47:21.135Z,42.70
2019-02-25T10:49:48.087Z,22.07
2019-02-25T10:52:17.229Z,24.37
2019-02-25T10:54:44.363Z,22.42
2019-02-25T10:57:11.733Z,23.07
2019-02-25T10:59:41.343Z,22.77
2019-02-25T11:02:09.025Z,18.05
2019-02-25T11:04:36.981Z,20.57
2019-02-25T11:07:05.641Z,21.55
2019-02-25T11:09:37.613Z,19.90
2019-02-25T11:12:04.915Z,17.95
2019-02-25T11:14:33.330Z,14.23
2019-02-25T11:17:01.182Z,15.63
2019-02-25T11:19:30.234Z,12.40
2019-02-25T11:21:57.430Z,13.60
2019-02-25T11:24:25.481Z,11.55
2019-02-25T11:26:52.873Z,16.02
2019-02-25T11:29:20.175Z,13.15
2019-02-25T11:31:49.374Z,11.40
2019-02-25T11:34:16.447Z,17.87
2019-02-25T11:36:43.771Z,15.43
2019-02-25T11:39:12.700Z,16.07
2019-02-25T11:41:41.094Z,16.45
2019-02-25T11:44:08.426Z,13.60
2019-02-25T11:46:35.718Z,14.85
2019-02-25T11:49:03.074Z,17.82
2019-02-25T11:51:30.322Z,16.77
2019-02-25T11:53:59.435Z,15.98
2019-02-25T11:56:26.566Z,15.95
2019-02-25T11:58:53.871Z,14.15
2019-02-25T12:01:21.163Z,14.93
2019-02-25T12:03:48.482Z,20.40
2019-02-25T12:06:15.773Z,13.98
2019-02-25T12:08:43.153Z,16.30
2019-02-25T12:11:10.448Z,13.32
2019-02-25T12:13:37.770Z,14.87
2019-02-25T12:16:05.057Z,14.73
2019-02-25T12:18:32.427Z,15.65
2019-02-25T12:20:59.737Z,13.05
2019-02-25T12:23:27.026Z,15.63
2019-02-25T12:25:54.348Z,15.23
2019-02-25T12:28:21.643Z,17.32
2019-02-25T12:30:48.942Z,14.45
2019-02-25T12:33:16.271Z,13.35
2019-02-25T12:35:43.566Z,16.42
2019-02-25T12:38:10.897Z,13.20
2019-02-25T12:40:38.195Z,12.35
2019-02-25T12:43:05.500Z,14.60
2019-02-25T12:45:32.812Z,15.98
2019-02-25T12:48:00.207Z,15.28
2019-02-25T12:50:27.543Z,15.30
2019-02-25T12:52:54.857Z,11.95
2019-02-25T12:55:22.158Z,13.45
2019-02-25T12:57:49.478Z,13.20
2019-02-25T13:00:18.406Z,13.78
2019-02-25T13:02:45.732Z,13.35
2019-02-25T13:05:14.104Z,14.58
2019-02-25T13:07:41.406Z,14.90
2019-02-25T13:10:09.798Z,11.48
2019-02-25T13:12:37.094Z,14.43
2019-02-25T13:15:13.093Z,12.70
2019-02-25T13:17:34.822Z,18.43
2019-02-25T13:20:02.195Z,20.53
2019-02-25T13:22:29.492Z,12.63
2019-02-25T13:24:56.883Z,10.07
2019-02-25T13:27:24.188Z,11.83
2019-02-25T13:29:51.494Z,17.15
2019-02-25T13:32:18.797Z,12.10
2019-02-25T13:34:46.316Z,7.87
2019-02-25T13:37:13.604Z,5.90
2019-02-25T13:39:40.889Z,22.27
2019-02-25T13:42:08.207Z,8.73
2019-02-25T13:44:35.502Z,8.33
2019-02-25T13:47:02.813Z,5.80
2019-02-25T13:49:30.123Z,7.20
2019-02-25T13:51:57.411Z,5.90
2019-02-25T13:54:24.713Z,7.00
2019-02-25T13:56:52.122Z,8.87
2019-02-25T13:59:19.418Z,11.93
2019-02-25T14:01:46.697Z,6.20
2019-02-25T14:04:14.018Z,9.60
2019-02-25T14:06:41.297Z,5.13
2019-02-25T14:09:08.587Z,20.77
2019-02-25T14:11:35.908Z,23.63
2019-02-25T14:14:03.296Z,3.20
2019-02-25T14:16:30.583Z,5.70
2019-02-25T14:18:57.871Z,1.60
2019-02-25T14:21:25.258Z,2.70
2019-02-25T14:23:52.540Z,2.40
2019-02-25T14:26:19.870Z,2.97
2019-02-25T14:28:48.689Z,7.20
2019-02-25T14:31:16.054Z,7.90
2019-02-25T14:33:43.363Z,6.15
2019-02-25T14:36:10.808Z,6.73
2019-02-25T14:38:38.147Z,10.20
2019-02-25T14:41:06.957Z,4.80
2019-02-25T14:46:04.862Z,4.85
2019-02-25T14:48:32.917Z,5.50
2019-02-25T14:51:00.528Z,4.85
2019-02-25T14:55:58.143Z,7.83
2019-02-25T14:58:25.022Z,4.65
2019-02-25T15:00:52.330Z,7.00
2019-02-25T15:03:20.442Z,2.63
2019-02-25T15:05:50.224Z,8.15
2019-02-25T15:08:17.519Z,4.50
2019-02-25T15:10:44.837Z,4.03
2019-02-25T15:13:12.140Z,5.03
2019-02-25T15:15:41.148Z,4.75
2019-02-25T15:18:08.367Z,3.50
2019-02-25T15:20:35.784Z,8.80
2019-02-25T15:23:03.843Z,5.93
2019-02-25T15:25:33.090Z,3.80
2019-02-25T15:28:00.096Z,10.90
2019-02-25T15:30:30.422Z,7.20
2019-02-25T15:35:29.149Z,6.87
2019-02-25T15:37:55.433Z,5.57
2019-02-25T15:40:24.647Z,11.35
2019-02-25T15:43:05.427Z,14.20
2019-02-25T15:45:35.453Z,5.70
2019-02-25T15:48:03.464Z,17.90
2019-02-25T15:50:30.840Z,7.50
2019-02-25T15:53:00.774Z,20.40
2019-02-25T15:57:55.093Z,15.75
2019-02-25T16:00:27.638Z,10.10
2019-02-25T16:02:55.738Z,6.80
2019-02-25T16:05:25.215Z,9.20
2019-02-25T16:07:53.970Z,4.70
2019-02-25T17:09:16.114Z,18.50
2019-02-25T17:11:44.450Z,18.25
2019-02-25T17:16:39.357Z,12.90
2019-02-25T17:19:06.640Z,12.45
2019-02-25T17:21:34.133Z,7.55
2019-02-25T17:24:03.592Z,7.80
2019-02-25T17:31:23.746Z,13.13
2019-02-25T17:33:51.797Z,10.00
2019-02-25T17:36:20.060Z,17.52
2019-02-25T17:38:49.618Z,11.70
2019-02-25T17:41:16.553Z,14.75
2019-02-25T17:43:43.913Z,21.93
2019-02-25T17:46:11.989Z,24.07
2019-02-25T17:48:40.181Z,23.65
2019-02-25T17:51:07.495Z,12.05
2019-02-25T17:53:34.798Z,15.93
2019-02-25T17:56:02.121Z,14.83
2019-02-25T17:58:29.414Z,16.85
2019-02-25T18:00:58.702Z,15.88
2019-02-25T18:03:26.517Z,24.18
2019-02-25T18:05:53.833Z,41.20
2019-02-25T18:08:21.145Z,30.65
2019-02-25T18:10:50.080Z,30.15
2019-02-25T18:13:17.701Z,26.45
2019-02-25T18:15:47.159Z,22.65
2019-02-25T18:18:15.157Z,19.85
2019-02-25T18:20:43.105Z,20.80
2019-02-25T18:23:10.623Z,32.45
2019-02-25T18:25:39.747Z,29.60
2019-02-25T18:28:08.419Z,20.88
2019-02-25T18:30:35.963Z,26.12
2019-02-25T18:33:05.256Z,20.10
2019-02-25T18:35:35.778Z,23.83
2019-02-25T18:38:02.684Z,16.42
2019-02-25T18:40:30.532Z,18.70
2019-02-25T18:42:58.657Z,17.90
2019-02-25T18:45:26.854Z,14.40
2019-02-25T18:47:54.182Z,11.68
2019-02-25T18:50:23.918Z,11.75
2019-02-25T18:52:52.849Z,14.50
2019-02-25T18:55:23.277Z,11.70
2019-02-25T18:57:52.326Z,12.07
2019-02-25T19:00:24.316Z,14.25
2019-02-25T19:02:51.818Z,17.48
2019-02-25T19:05:20.845Z,13.80
2019-02-25T19:07:49.226Z,19.65
2019-02-25T19:10:18.275Z,21.80
2019-02-25T19:12:47.989Z,18.48
2019-02-25T19:15:15.026Z,22.65
2019-02-25T19:17:43.795Z,23.47
2019-02-25T19:20:11.277Z,17.75
2019-02-25T19:22:39.802Z,14.45
2019-02-25T19:25:10.056Z,23.57
2019-02-25T19:27:37.514Z,19.12
2019-02-25T19:30:06.461Z,29.20
2019-02-25T19:32:35.969Z,23.45
2019-02-25T19:35:04.730Z,22.10
2019-02-25T19:37:33.934Z,14.55
2019-02-25T19:40:00.746Z,13.40
2019-02-25T19:42:29.532Z,16.25
2019-02-25T19:44:58.487Z,17.07
2019-02-25T19:47:26.041Z,12.85
2019-02-25T19:49:53.357Z,12.80
2019-02-25T19:52:20.659Z,14.93
2019-02-25T19:54:48.887Z,10.38
2019-02-25T19:57:18.812Z,13.93
2019-02-25T19:59:46.244Z,12.40
2019-02-25T20:02:14.819Z,16.42
2019-02-25T20:04:42.307Z,12.60
2019-02-25T20:07:10.315Z,13.62
2019-02-25T20:09:40.293Z,15.05
2019-02-25T20:12:06.809Z,19.77
2019-02-25T20:14:34.127Z,20.15
2019-02-25T20:17:02.734Z,17.23
2019-02-25T20:19:30.050Z,18.87
2019-02-25T20:21:57.594Z,21.50
2019-02-25T20:24:25.653Z,21.97
2019-02-25T20:26:57.488Z,16.37
2019-02-25T20:29:21.951Z,18.23
2019-02-25T20:31:50.132Z,17.85
2019-02-25T20:34:20.522Z,15.05
2019-02-25T20:36:48.353Z,14.60
2019-02-25T20:39:17.024Z,15.00
2019-02-25T20:41:45.779Z,13.25
2019-02-25T20:44:13.378Z,14.15
2019-02-25T20:46:40.700Z,13.93
2019-02-25T20:49:07.985Z,15.85
2019-02-25T20:51:36.207Z,16.02
2019-02-25T20:54:03.500Z,50.10
2019-02-25T20:56:31.489Z,61.75
2019-02-25T20:59:21.039Z,105.80
2019-02-25T21:01:48.864Z,89.20
2019-02-25T21:04:18.019Z,142.25
2019-02-25T21:06:46.054Z,154.78
2019-02-25T21:09:13.363Z,113.95
2019-02-25T21:11:40.657Z,117.80
2019-02-25T21:14:07.980Z,45.38
2019-02-25T21:16:35.294Z,33.98
2019-02-25T21:19:02.587Z,34.48
2019-02-25T21:21:30.910Z,23.75
2019-02-25T21:24:01.343Z,35.83
2019-02-25T21:26:29.484Z,30.32
2019-02-25T21:28:58.491Z,28.92
2019-02-25T21:31:26.494Z,23.83
2019-02-25T21:33:54.401Z,19.65
2019-02-25T21:36:22.871Z,28.12
2019-02-25T21:38:51.697Z,21.10
2019-02-25T21:41:19.139Z,21.25
2019-02-25T21:43:47.292Z,24.30
2019-02-25T21:46:17.914Z,23.07
2019-02-25T21:48:44.338Z,24.00
2019-02-25T21:51:13.771Z,30.65
2019-02-25T21:53:40.606Z,29.75
2019-02-25T21:56:07.926Z,24.98
2019-02-25T21:58:35.214Z,16.45
2019-02-25T22:01:02.535Z,15.48
2019-02-25T22:03:29.829Z,15.93
2019-02-25T22:05:58.781Z,17.85
2019-02-25T22:08:26.671Z,14.98
2019-02-25T22:10:55.059Z,16.05
2019-02-25T22:13:22.385Z,19.52
2019-02-25T22:15:49.678Z,20.05
2019-02-25T22:18:16.977Z,17.60
2019-02-25T22:20:45.235Z,17.35
2019-02-25T22:23:13.284Z,17.02
2019-02-25T22:25:40.557Z,16.27
2019-02-25T22:28:09.916Z,15.53
2019-02-25T22:30:36.837Z,16.20
2019-02-25T22:33:04.899Z,16.42
2019-02-25T22:35:35.528Z,16.97
2019-02-25T22:38:02.814Z,16.42
2019-02-25T22:40:32.136Z,17.87
2019-02-25T22:42:59.127Z,16.50
2019-02-25T22:45:26.418Z,15.63
2019-02-25T22:47:53.710Z,16.97
2019-02-25T22:50:21.052Z,17.25
2019-02-25T22:52:52.260Z,15.53
2019-02-25T22:55:18.478Z,16.17
2019-02-25T22:57:50.502Z,15.53
2019-02-25T23:00:28.943Z,17.73
2019-02-25T23:02:56.832Z,17.57
2019-02-25T23:05:25.537Z,19.82
2019-02-25T23:07:54.560Z,17.77
2019-02-25T23:10:22.377Z,16.02
2019-02-25T23:12:50.767Z,17.75
2019-02-25T23:15:18.662Z,18.95
2019-02-25T23:17:47.015Z,18.00
2019-02-25T23:20:14.344Z,16.50
2019-02-25T23:22:41.629Z,18.40
2019-02-25T23:25:09.594Z,17.05
2019-02-25T23:27:38.819Z,17.40
2019-02-25T23:30:08.638Z,15.60
2019-02-25T23:32:38.813Z,17.10
2019-02-25T23:35:09.431Z,15.58
2019-02-25T23:37:34.655Z,19.48
2019-02-25T23:40:04.482Z,16.37
2019-02-25T23:42:33.086Z,18.17
2019-02-25T23:44:59.913Z,17.02
2019-02-25T23:47:29.042Z,18.67
2019-02-25T23:49:56.185Z,16.85
2019-02-25T23:52:23.492Z,19.48
2019-02-25T23:54:51.965Z,20.25
2019-02-25T23:57:21.620Z,16.62
2019-02-25T23:59:49.566Z,18.62
